sensor_id;sensor_type;location;lat;lon;timestamp;pressure;altitude;pressure_sealevel;temperature;humidity
50484;BME280;36409;52.168;20.878;2023-08-07T00:00:22;98828.52;;;14.98;70.76
50484;BME280;36409;52.168;20.878;2023-08-07T00:03:11;98825.16;;;14.96;71.24
50484;BME280;36409;52.168;20.878;2023-08-07T00:05:40;98834.90;;;14.94;71.19
50484;BME280;36409;52.168;20.878;2023-08-07T00:08:08;98841.15;;;14.92;70.67
50484;BME280;36409;52.168;20.878;2023-08-07T00:10:37;98849.13;;;14.90;70.58
50484;BME280;36409;52.168;20.878;2023-08-07T00:13:06;98850.98;;;14.88;70.70
50484;BME280;36409;52.168;20.878;2023-08-07T00:15:38;98857.17;;;14.87;71.26
50484;BME280;36409;52.168;20.878;2023-08-07T00:18:07;98859.06;;;14.85;70.98
50484;BME280;36409;52.168;20.878;2023-08-07T00:20:36;98869.63;;;14.83;71.77
50484;BME280;36409;52.168;20.878;2023-08-07T00:23:04;98860.98;;;14.81;71.39
50484;BME280;36409;52.168;20.878;2023-08-07T00:25:33;98857.43;;;14.82;71.51
50484;BME280;36409;52.168;20.878;2023-08-07T00:28:02;98861.75;;;14.83;71.55
50484;BME280;36409;52.168;20.878;2023-08-07T00:30:31;98863.45;;;14.85;71.80
50484;BME280;36409;52.168;20.878;2023-08-07T00:33:00;98859.06;;;14.85;71.95
50484;BME280;36409;52.168;20.878;2023-08-07T00:35:29;98857.53;;;14.81;71.93
50484;BME280;36409;52.168;20.878;2023-08-07T00:37:58;98863.70;;;14.80;71.81
50484;BME280;36409;52.168;20.878;2023-08-07T00:40:27;98866.34;;;14.80;71.62
50484;BME280;36409;52.168;20.878;2023-08-07T00:42:55;98863.80;;;14.78;72.05
50484;BME280;36409;52.168;20.878;2023-08-07T00:45:24;98857.69;;;14.78;71.39
50484;BME280;36409;52.168;20.878;2023-08-07T00:47:54;98845.48;;;14.77;71.62
50484;BME280;36409;52.168;20.878;2023-08-07T00:50:23;98838.54;;;14.76;72.18
50484;BME280;36409;52.168;20.878;2023-08-07T00:53:02;98829.92;;;14.74;71.60
50484;BME280;36409;52.168;20.878;2023-08-07T00:55:31;98824.67;;;14.74;71.36
50484;BME280;36409;52.168;20.878;2023-08-07T00:58:00;98825.50;;;14.74;72.25
50484;BME280;36409;52.168;20.878;2023-08-07T01:00:29;98815.00;;;14.74;71.92
50484;BME280;36409;52.168;20.878;2023-08-07T01:03:00;98819.42;;;14.74;71.58
50484;BME280;36409;52.168;20.878;2023-08-07T01:05:30;98822.97;;;14.73;72.03
50484;BME280;36409;52.168;20.878;2023-08-07T01:07:59;98814.33;;;14.71;72.24
50484;BME280;36409;52.168;20.878;2023-08-07T01:10:47;98821.34;;;14.70;71.54
50484;BME280;36409;52.168;20.878;2023-08-07T01:13:27;98817.89;;;14.70;72.01
50484;BME280;36409;52.168;20.878;2023-08-07T01:16:01;98810.11;;;14.68;72.20
50484;BME280;36409;52.168;20.878;2023-08-07T01:18:31;98807.38;;;14.70;71.89
50484;BME280;36409;52.168;20.878;2023-08-07T01:21:01;98809.91;;;14.71;71.62
50484;BME280;36409;52.168;20.878;2023-08-07T01:23:31;98817.89;;;14.70;72.02
50484;BME280;36409;52.168;20.878;2023-08-07T01:26:00;98802.13;;;14.70;72.33
50484;BME280;36409;52.168;20.878;2023-08-07T01:28:35;98815.16;;;14.71;72.41
50484;BME280;36409;52.168;20.878;2023-08-07T01:31:10;98816.95;;;14.71;71.92
50484;BME280;36409;52.168;20.878;2023-08-07T01:33:51;98829.22;;;14.70;71.95
50484;BME280;36409;52.168;20.878;2023-08-07T01:36:24;98814.42;;;14.69;72.53
50484;BME280;36409;52.168;20.878;2023-08-07T01:38:56;98820.52;;;14.70;72.26
50484;BME280;36409;52.168;20.878;2023-08-07T01:41:26;98824.94;;;14.69;71.84
50484;BME280;36409;52.168;20.878;2023-08-07T01:43:55;98829.42;;;14.67;71.81
50484;BME280;36409;52.168;20.878;2023-08-07T01:46:26;98839.92;;;14.67;71.81
50484;BME280;36409;52.168;20.878;2023-08-07T01:48:55;98844.24;;;14.68;72.17
50484;BME280;36409;52.168;20.878;2023-08-07T01:51:24;98855.67;;;14.67;71.92
50484;BME280;36409;52.168;20.878;2023-08-07T01:53:53;98854.88;;;14.65;71.75
50484;BME280;36409;52.168;20.878;2023-08-07T01:56:22;98849.72;;;14.63;72.22
50484;BME280;36409;52.168;20.878;2023-08-07T01:58:50;98843.77;;;14.60;72.54
50484;BME280;36409;52.168;20.878;2023-08-07T02:01:20;98841.23;;;14.58;72.33
50484;BME280;36409;52.168;20.878;2023-08-07T02:03:51;98827.34;;;14.56;71.92
50484;BME280;36409;52.168;20.878;2023-08-07T02:06:20;98823.95;;;14.54;72.59
50484;BME280;36409;52.168;20.878;2023-08-07T02:08:49;98823.95;;;14.54;72.24
50484;BME280;36409;52.168;20.878;2023-08-07T02:11:18;98820.39;;;14.55;72.47
50484;BME280;36409;52.168;20.878;2023-08-07T02:13:47;98818.79;;;14.52;72.20
50484;BME280;36409;52.168;20.878;2023-08-07T02:16:16;98820.58;;;14.52;72.59
50484;BME280;36409;52.168;20.878;2023-08-07T02:18:45;98814.47;;;14.51;72.15
50484;BME280;36409;52.168;20.878;2023-08-07T02:21:17;98809.31;;;14.50;72.74
50484;BME280;36409;52.168;20.878;2023-08-07T02:23:46;98818.89;;;14.51;72.50
50484;BME280;36409;52.168;20.878;2023-08-07T02:26:15;98836.34;;;14.52;72.94
50484;BME280;36409;52.168;20.878;2023-08-07T02:28:44;98846.90;;;14.50;72.86
50484;BME280;36409;52.168;20.878;2023-08-07T02:31:13;98858.42;;;14.48;72.18
50484;BME280;36409;52.168;20.878;2023-08-07T02:33:41;98867.31;;;14.45;72.63
50484;BME280;36409;52.168;20.878;2023-08-07T02:36:10;98860.38;;;14.44;72.74
50484;BME280;36409;52.168;20.878;2023-08-07T02:38:39;98856.88;;;14.44;72.87
50484;BME280;36409;52.168;20.878;2023-08-07T02:41:09;98848.17;;;14.43;73.16
50484;BME280;36409;52.168;20.878;2023-08-07T02:43:38;98849.20;;;14.41;72.46
50484;BME280;36409;52.168;20.878;2023-08-07T02:46:07;98846.80;;;14.36;72.28
50484;BME280;36409;52.168;20.878;2023-08-07T02:48:36;98855.69;;;14.33;72.33
50484;BME280;36409;52.168;20.878;2023-08-07T02:51:04;98856.86;;;14.28;72.70
50484;BME280;36409;52.168;20.878;2023-08-07T02:53:34;98867.45;;;14.26;72.67
50484;BME280;36409;52.168;20.878;2023-08-07T02:56:04;98875.38;;;14.25;72.74
50484;BME280;36409;52.168;20.878;2023-08-07T02:58:32;98881.66;;;14.22;72.94
50484;BME280;36409;52.168;20.878;2023-08-07T03:01:04;98879.95;;;14.21;73.34
50484;BME280;36409;52.168;20.878;2023-08-07T03:03:34;98878.25;;;14.20;72.92
50484;BME280;36409;52.168;20.878;2023-08-07T03:06:04;98869.55;;;14.19;72.82
50484;BME280;36409;52.168;20.878;2023-08-07T03:08:32;98858.19;;;14.19;73.01
50484;BME280;36409;52.168;20.878;2023-08-07T03:11:01;98845.84;;;14.21;72.76
50484;BME280;36409;52.168;20.878;2023-08-07T03:13:30;98857.36;;;14.18;73.04
50484;BME280;36409;52.168;20.878;2023-08-07T03:16:03;98867.02;;;14.18;72.86
50484;BME280;36409;52.168;20.878;2023-08-07T03:18:32;98868.88;;;14.16;73.52
50484;BME280;36409;52.168;20.878;2023-08-07T03:21:02;98886.47;;;14.14;72.94
50484;BME280;36409;52.168;20.878;2023-08-07T03:23:31;98884.77;;;14.13;72.57
50484;BME280;36409;52.168;20.878;2023-08-07T03:26:04;98887.39;;;14.13;73.09
50484;BME280;36409;52.168;20.878;2023-08-07T03:28:37;98896.19;;;14.12;72.81
50484;BME280;36409;52.168;20.878;2023-08-07T03:31:06;98893.71;;;14.09;72.69
50484;BME280;36409;52.168;20.878;2023-08-07T03:33:36;98894.64;;;14.08;72.74
50484;BME280;36409;52.168;20.878;2023-08-07T03:36:06;98889.39;;;14.08;72.67
50484;BME280;36409;52.168;20.878;2023-08-07T03:38:35;98896.34;;;14.09;73.04
50484;BME280;36409;52.168;20.878;2023-08-07T03:41:04;98902.45;;;14.09;73.69
50484;BME280;36409;52.168;20.878;2023-08-07T03:43:33;98905.91;;;14.10;73.47
50484;BME280;36409;52.168;20.878;2023-08-07T03:46:02;98912.85;;;14.11;73.36
50484;BME280;36409;52.168;20.878;2023-08-07T03:48:32;98912.85;;;14.11;73.37
50484;BME280;36409;52.168;20.878;2023-08-07T03:51:07;98905.75;;;14.13;73.16
50484;BME280;36409;52.168;20.878;2023-08-07T03:53:39;98906.53;;;14.15;73.88
50484;BME280;36409;52.168;20.878;2023-08-07T03:56:08;98916.88;;;14.18;73.42
50484;BME280;36409;52.168;20.878;2023-08-07T03:58:37;98913.23;;;14.20;73.33
50484;BME280;36409;52.168;20.878;2023-08-07T04:01:08;98906.13;;;14.23;73.43
50484;BME280;36409;52.168;20.878;2023-08-07T04:03:37;98903.27;;;14.27;73.80
50484;BME280;36409;52.168;20.878;2023-08-07T04:06:07;98903.17;;;14.29;73.49
50484;BME280;36409;52.168;20.878;2023-08-07T04:08:36;98900.39;;;14.32;73.29
50484;BME280;36409;52.168;20.878;2023-08-07T04:11:05;98895.92;;;14.34;73.58
50484;BME280;36409;52.168;20.878;2023-08-07T04:13:35;98899.28;;;14.36;73.02
50484;BME280;36409;52.168;20.878;2023-08-07T04:16:04;98895.67;;;14.39;73.71
50484;BME280;36409;52.168;20.878;2023-08-07T04:18:34;98898.05;;;14.43;73.21
50484;BME280;36409;52.168;20.878;2023-08-07T04:21:04;98904.06;;;14.45;72.96
50484;BME280;36409;52.168;20.878;2023-08-07T04:23:33;98906.59;;;14.47;73.05
50484;BME280;36409;52.168;20.878;2023-08-07T04:26:03;98919.57;;;14.50;72.93
50484;BME280;36409;52.168;20.878;2023-08-07T04:28:32;98927.26;;;14.53;73.07
50484;BME280;36409;52.168;20.878;2023-08-07T04:31:01;98921.95;;;14.55;72.68
50484;BME280;36409;52.168;20.878;2023-08-07T04:33:30;98920.09;;;14.57;73.13
50484;BME280;36409;52.168;20.878;2023-08-07T04:35:59;98921.70;;;14.59;72.98
50484;BME280;36409;52.168;20.878;2023-08-07T04:38:28;98913.81;;;14.59;73.23
50484;BME280;36409;52.168;20.878;2023-08-07T04:40:57;98918.91;;;14.62;73.19
50484;BME280;36409;52.168;20.878;2023-08-07T04:43:26;98929.41;;;14.62;73.22
50484;BME280;36409;52.168;20.878;2023-08-07T04:45:56;98932.11;;;14.61;72.70
50484;BME280;36409;52.168;20.878;2023-08-07T04:48:25;98934.82;;;14.59;72.80
50484;BME280;36409;52.168;20.878;2023-08-07T04:50:54;98935.66;;;14.60;72.86
50484;BME280;36409;52.168;20.878;2023-08-07T04:53:23;98931.33;;;14.59;72.16
50484;BME280;36409;52.168;20.878;2023-08-07T04:55:53;98925.16;;;14.60;72.46
50484;BME280;36409;52.168;20.878;2023-08-07T04:58:21;98929.48;;;14.61;72.58
50484;BME280;36409;52.168;20.878;2023-08-07T05:00:56;98923.39;;;14.60;72.88
50484;BME280;36409;52.168;20.878;2023-08-07T05:03:26;98931.27;;;14.60;72.16
50484;BME280;36409;52.168;20.878;2023-08-07T05:05:59;98937.30;;;14.62;72.66
50484;BME280;36409;52.168;20.878;2023-08-07T05:08:28;98938.99;;;14.63;72.73
50484;BME280;36409;52.168;20.878;2023-08-07T05:10:57;98938.03;;;14.64;72.24
50484;BME280;36409;52.168;20.878;2023-08-07T05:13:26;98939.70;;;14.67;72.90
50484;BME280;36409;52.168;20.878;2023-08-07T05:15:55;98938.77;;;14.68;72.42
50484;BME280;36409;52.168;20.878;2023-08-07T05:18:24;98949.95;;;14.72;72.42
50484;BME280;36409;52.168;20.878;2023-08-07T05:20:53;98941.92;;;14.75;72.44
50484;BME280;36409;52.168;20.878;2023-08-07T05:23:21;98947.75;;;14.80;72.62
50484;BME280;36409;52.168;20.878;2023-08-07T05:25:50;98939.63;;;14.85;72.09
50484;BME280;36409;52.168;20.878;2023-08-07T05:28:19;98942.00;;;14.89;72.38
50484;BME280;36409;52.168;20.878;2023-08-07T05:30:49;98943.44;;;14.95;72.65
50484;BME280;36409;52.168;20.878;2023-08-07T05:33:18;98934.47;;;14.99;72.11
50484;BME280;36409;52.168;20.878;2023-08-07T05:35:47;98933.34;;;15.03;72.32
50484;BME280;36409;52.168;20.878;2023-08-07T05:38:20;98942.00;;;15.05;71.97
50484;BME280;36409;52.168;20.878;2023-08-07T05:40:49;98942.09;;;15.04;72.52
50484;BME280;36409;52.168;20.878;2023-08-07T05:43:18;98942.92;;;15.04;72.11
50484;BME280;36409;52.168;20.878;2023-08-07T05:45:48;98950.07;;;15.02;72.42
50484;BME280;36409;52.168;20.878;2023-08-07T05:48:17;98955.48;;;14.99;71.79
50484;BME280;36409;52.168;20.878;2023-08-07T05:50:46;98960.06;;;14.95;72.19
50484;BME280;36409;52.168;20.878;2023-08-07T05:53:16;98951.41;;;14.93;72.22
50484;BME280;36409;52.168;20.878;2023-08-07T05:55:45;98957.69;;;14.91;72.47
50484;BME280;36409;52.168;20.878;2023-08-07T05:58:14;98954.20;;;14.90;72.06
50484;BME280;36409;52.168;20.878;2023-08-07T06:00:42;98954.11;;;14.92;71.67
50484;BME280;36409;52.168;20.878;2023-08-07T06:03:11;98955.80;;;14.93;72.41
50484;BME280;36409;52.168;20.878;2023-08-07T06:05:41;98946.16;;;14.93;71.86
50484;BME280;36409;52.168;20.878;2023-08-07T06:08:10;98947.77;;;14.96;71.77
50484;BME280;36409;52.168;20.878;2023-08-07T06:10:38;98940.75;;;14.96;71.94
50484;BME280;36409;52.168;20.878;2023-08-07T06:13:07;98950.23;;;14.99;72.17
50484;BME280;36409;52.168;20.878;2023-08-07T06:15:42;98955.23;;;15.04;71.69
50484;BME280;36409;52.168;20.878;2023-08-07T06:18:11;98963.78;;;15.07;72.24
50484;BME280;36409;52.168;20.878;2023-08-07T06:20:39;98970.64;;;15.10;71.79
50484;BME280;36409;52.168;20.878;2023-08-07T06:23:08;98967.02;;;15.12;71.46
50484;BME280;36409;52.168;20.878;2023-08-07T06:25:37;98967.69;;;15.16;71.41
50484;BME280;36409;52.168;20.878;2023-08-07T06:28:06;98962.17;;;15.21;71.86
50484;BME280;36409;52.168;20.878;2023-08-07T06:30:35;98964.55;;;15.25;71.38
50484;BME280;36409;52.168;20.878;2023-08-07T06:33:04;98968.71;;;15.29;71.06
50484;BME280;36409;52.168;20.878;2023-08-07T06:35:38;98967.78;;;15.31;71.02
50484;BME280;36409;52.168;20.878;2023-08-07T06:38:07;98967.17;;;15.25;71.00
50484;BME280;36409;52.168;20.878;2023-08-07T06:40:36;98969.80;;;15.25;70.94
50484;BME280;36409;52.168;20.878;2023-08-07T06:43:05;98972.43;;;15.25;70.95
50484;BME280;36409;52.168;20.878;2023-08-07T06:45:34;98974.80;;;15.30;71.31
50484;BME280;36409;52.168;20.878;2023-08-07T06:48:03;98970.15;;;15.35;71.12
50484;BME280;36409;52.168;20.878;2023-08-07T06:50:32;98969.45;;;15.48;70.86
50484;BME280;36409;52.168;20.878;2023-08-07T06:53:01;98982.91;;;15.57;70.89
50484;BME280;36409;52.168;20.878;2023-08-07T06:55:30;98978.81;;;15.68;70.67
50484;BME280;36409;52.168;20.878;2023-08-07T06:57:59;98986.27;;;15.75;70.63
50484;BME280;36409;52.168;20.878;2023-08-07T07:00:28;98987.87;;;15.78;70.59
50484;BME280;36409;52.168;20.878;2023-08-07T07:02:57;98986.11;;;15.79;70.80
50484;BME280;36409;52.168;20.878;2023-08-07T07:05:26;98988.80;;;15.77;70.26
50484;BME280;36409;52.168;20.878;2023-08-07T07:07:54;98995.96;;;15.75;70.37
50484;BME280;36409;52.168;20.878;2023-08-07T07:10:23;98999.69;;;15.71;70.43
50484;BME280;36409;52.168;20.878;2023-08-07T07:12:52;99007.48;;;15.72;70.03
50484;BME280;36409;52.168;20.878;2023-08-07T07:15:21;98993.33;;;15.75;69.99
50484;BME280;36409;52.168;20.878;2023-08-07T07:17:50;98990.77;;;15.73;70.06
50484;BME280;36409;52.168;20.878;2023-08-07T07:20:19;98985.51;;;15.73;70.19
50484;BME280;36409;52.168;20.878;2023-08-07T07:22:49;98995.03;;;15.76;70.15
50484;BME280;36409;52.168;20.878;2023-08-07T07:25:18;98993.90;;;15.80;69.88
50484;BME280;36409;52.168;20.878;2023-08-07T07:27:47;98994.00;;;15.79;70.07
50484;BME280;36409;52.168;20.878;2023-08-07T07:30:16;99009.11;;;15.75;69.95
50484;BME280;36409;52.168;20.878;2023-08-07T07:32:46;99020.13;;;15.66;69.79
50484;BME280;36409;52.168;20.878;2023-08-07T07:35:17;99027.45;;;15.60;69.87
50484;BME280;36409;52.168;20.878;2023-08-07T07:37:46;99019.05;;;15.54;69.77
50484;BME280;36409;52.168;20.878;2023-08-07T07:40:16;99026.78;;;15.57;69.52
50484;BME280;36409;52.168;20.878;2023-08-07T07:42:45;99022.86;;;15.64;69.61
50484;BME280;36409;52.168;20.878;2023-08-07T07:45:14;99026.16;;;15.68;69.55
50484;BME280;36409;52.168;20.878;2023-08-07T07:47:43;99027.86;;;15.69;69.71
50484;BME280;36409;52.168;20.878;2023-08-07T07:50:13;99031.35;;;15.69;69.29
50484;BME280;36409;52.168;20.878;2023-08-07T07:52:43;99033.22;;;15.67;69.15
50484;BME280;36409;52.168;20.878;2023-08-07T07:55:12;99031.61;;;15.65;69.01
50484;BME280;36409;52.168;20.878;2023-08-07T07:57:42;99031.11;;;15.58;69.49
50484;BME280;36409;52.168;20.878;2023-08-07T08:00:13;99024.22;;;15.55;69.35
50484;BME280;36409;52.168;20.878;2023-08-07T08:02:42;99027.28;;;15.64;69.34
50484;BME280;36409;52.168;20.878;2023-08-07T08:05:11;99044.41;;;15.87;69.19
50484;BME280;36409;52.168;20.878;2023-08-07T08:07:40;99026.84;;;16.18;69.40
50484;BME280;36409;52.168;20.878;2023-08-07T08:10:10;99034.88;;;16.45;69.46
50484;BME280;36409;52.168;20.878;2023-08-07T08:12:39;99029.47;;;16.63;69.11
50484;BME280;36409;52.168;20.878;2023-08-07T08:15:09;99028.72;;;16.75;69.00
50484;BME280;36409;52.168;20.878;2023-08-07T08:17:38;99029.27;;;16.80;68.56
50484;BME280;36409;52.168;20.878;2023-08-07T08:20:09;99021.66;;;16.90;68.64
50484;BME280;36409;52.168;20.878;2023-08-07T08:22:38;99020.61;;;16.93;68.56
50484;BME280;36409;52.168;20.878;2023-08-07T08:25:08;99020.61;;;16.93;68.54
50484;BME280;36409;52.168;20.878;2023-08-07T08:27:38;99032.20;;;16.90;68.07
50484;BME280;36409;52.168;20.878;2023-08-07T08:30:09;99038.91;;;16.96;68.03
50484;BME280;36409;52.168;20.878;2023-08-07T08:32:38;99040.03;;;17.06;68.06
50484;BME280;36409;52.168;20.878;2023-08-07T08:35:10;99050.94;;;17.14;67.78
50484;BME280;36409;52.168;20.878;2023-08-07T08:37:39;99050.36;;;17.24;67.51
50484;BME280;36409;52.168;20.878;2023-08-07T08:40:10;99050.52;;;17.35;67.49
50484;BME280;36409;52.168;20.878;2023-08-07T08:42:40;99043.30;;;17.39;67.35
50484;BME280;36409;52.168;20.878;2023-08-07T08:45:14;99040.89;;;17.49;67.04
50484;BME280;36409;52.168;20.878;2023-08-07T08:47:43;99038.22;;;17.63;67.14
50484;BME280;36409;52.168;20.878;2023-08-07T08:50:14;99044.30;;;17.78;67.05
50484;BME280;36409;52.168;20.878;2023-08-07T08:52:44;99048.52;;;17.81;66.80
50484;BME280;36409;52.168;20.878;2023-08-07T08:55:15;99044.94;;;17.82;66.71
50484;BME280;36409;52.168;20.878;2023-08-07T08:57:44;99032.60;;;18.10;66.46
50484;BME280;36409;52.168;20.878;2023-08-07T09:00:15;99034.66;;;18.45;66.62
50484;BME280;36409;52.168;20.878;2023-08-07T09:02:47;99030.73;;;18.76;66.38
50484;BME280;36409;52.168;20.878;2023-08-07T09:05:18;99036.45;;;19.09;66.14
50484;BME280;36409;52.168;20.878;2023-08-07T09:07:49;99038.66;;;19.52;65.76
50484;BME280;36409;52.168;20.878;2023-08-07T09:10:18;99053.02;;;19.98;65.12
50484;BME280;36409;52.168;20.878;2023-08-07T09:12:54;99053.61;;;20.37;65.06
50484;BME280;36409;52.168;20.878;2023-08-07T09:15:26;99064.50;;;20.68;64.36
50484;BME280;36409;52.168;20.878;2023-08-07T09:17:56;99061.31;;;20.99;63.61
50484;BME280;36409;52.168;20.878;2023-08-07T09:20:27;99054.50;;;21.52;63.60
50484;BME280;36409;52.168;20.878;2023-08-07T09:22:56;99066.37;;;21.91;62.63
50484;BME280;36409;52.168;20.878;2023-08-07T09:25:28;99062.88;;;21.91;62.66
50484;BME280;36409;52.168;20.878;2023-08-07T09:27:58;99065.92;;;22.40;62.48
50484;BME280;36409;52.168;20.878;2023-08-07T09:30:34;99081.30;;;22.58;61.49
50484;BME280;36409;52.168;20.878;2023-08-07T09:33:04;99095.30;;;22.39;61.12
50484;BME280;36409;52.168;20.878;2023-08-07T09:35:34;99097.70;;;22.42;60.22
50484;BME280;36409;52.168;20.878;2023-08-07T09:38:03;99104.86;;;22.62;60.32
50484;BME280;36409;52.168;20.878;2023-08-07T09:40:32;99116.19;;;22.64;60.15
50484;BME280;36409;52.168;20.878;2023-08-07T09:43:01;99132.97;;;22.44;59.83
50484;BME280;36409;52.168;20.878;2023-08-07T09:45:33;99137.05;;;22.15;58.95
50484;BME280;36409;52.168;20.878;2023-08-07T09:48:06;99137.51;;;21.77;58.66
50484;BME280;36409;52.168;20.878;2023-08-07T09:50:35;99153.93;;;21.48;58.74
50484;BME280;36409;52.168;20.878;2023-08-07T09:53:04;99148.26;;;21.29;58.58
50484;BME280;36409;52.168;20.878;2023-08-07T09:55:33;99144.27;;;21.12;58.22
50484;BME280;36409;52.168;20.878;2023-08-07T09:58:02;99145.46;;;21.08;58.39
50484;BME280;36409;52.168;20.878;2023-08-07T10:00:34;99133.77;;;21.22;58.60
50484;BME280;36409;52.168;20.878;2023-08-07T10:03:05;99142.45;;;21.24;58.49
50484;BME280;36409;52.168;20.878;2023-08-07T10:05:34;99146.20;;;21.33;58.46
50484;BME280;36409;52.168;20.878;2023-08-07T10:08:03;99135.82;;;21.41;58.11
50484;BME280;36409;52.168;20.878;2023-08-07T10:10:33;99123.86;;;21.58;57.67
50484;BME280;36409;52.168;20.878;2023-08-07T10:13:03;99127.04;;;21.64;58.40
50484;BME280;36409;52.168;20.878;2023-08-07T10:15:32;99138.03;;;21.59;58.27
50484;BME280;36409;52.168;20.878;2023-08-07T10:18:02;99139.34;;;21.42;57.98
50484;BME280;36409;52.168;20.878;2023-08-07T10:20:33;99133.06;;;21.20;57.22
50484;BME280;36409;52.168;20.878;2023-08-07T10:23:07;99138.09;;;21.01;57.21
50484;BME280;36409;52.168;20.878;2023-08-07T10:25:39;99130.98;;;20.90;57.05
50484;BME280;36409;52.168;20.878;2023-08-07T10:28:12;99129.55;;;21.31;57.12
50484;BME280;36409;52.168;20.878;2023-08-07T10:30:43;99124.58;;;21.83;57.06
50484;BME280;36409;52.168;20.878;2023-08-07T10:33:13;99126.47;;;22.36;57.81
50484;BME280;36409;52.168;20.878;2023-08-07T10:35:46;99114.97;;;22.90;57.21
50484;BME280;36409;52.168;20.878;2023-08-07T10:38:22;99126.09;;;23.05;56.64
50484;BME280;36409;52.168;20.878;2023-08-07T10:41:02;99128.58;;;22.96;56.01
50484;BME280;36409;52.168;20.878;2023-08-07T10:43:38;99137.39;;;22.76;55.87
50484;BME280;36409;52.168;20.878;2023-08-07T10:46:10;99134.08;;;22.41;55.34
50484;BME280;36409;52.168;20.878;2023-08-07T10:48:41;99135.41;;;22.35;55.37
50484;BME280;36409;52.168;20.878;2023-08-07T10:51:13;99137.34;;;22.33;54.77
50484;BME280;36409;52.168;20.878;2023-08-07T10:53:44;99136.35;;;22.46;54.74
50484;BME280;36409;52.168;20.878;2023-08-07T10:56:17;99127.91;;;22.41;54.89
50484;BME280;36409;52.168;20.878;2023-08-07T10:58:50;99130.33;;;22.32;54.97
50484;BME280;36409;52.168;20.878;2023-08-07T11:01:39;99133.80;;;22.12;54.06
50484;BME280;36409;52.168;20.878;2023-08-07T11:04:10;99143.14;;;21.95;54.01
50484;BME280;36409;52.168;20.878;2023-08-07T11:06:41;99141.91;;;22.10;53.99
50484;BME280;36409;52.168;20.878;2023-08-07T11:09:10;99144.77;;;22.18;54.45
50484;BME280;36409;52.168;20.878;2023-08-07T11:11:45;99151.67;;;22.54;54.03
50484;BME280;36409;52.168;20.878;2023-08-07T11:14:15;99150.50;;;22.67;53.49
50484;BME280;36409;52.168;20.878;2023-08-07T11:16:46;99153.28;;;22.87;53.57
50484;BME280;36409;52.168;20.878;2023-08-07T11:19:17;99151.80;;;22.94;52.80
50484;BME280;36409;52.168;20.878;2023-08-07T11:21:49;99147.45;;;22.93;52.52
50484;BME280;36409;52.168;20.878;2023-08-07T11:24:19;99165.81;;;22.75;51.77
50484;BME280;36409;52.168;20.878;2023-08-07T11:26:50;99149.00;;;22.75;51.87
50484;BME280;36409;52.168;20.878;2023-08-07T11:29:21;99151.88;;;22.83;52.51
50484;BME280;36409;52.168;20.878;2023-08-07T11:31:52;99155.82;;;22.67;52.53
50484;BME280;36409;52.168;20.878;2023-08-07T11:34:21;99153.63;;;22.73;52.01
50484;BME280;36409;52.168;20.878;2023-08-07T11:36:50;99146.81;;;22.80;52.62
50484;BME280;36409;52.168;20.878;2023-08-07T11:39:19;99141.17;;;22.94;52.01
50484;BME280;36409;52.168;20.878;2023-08-07T11:41:51;99142.44;;;23.21;52.16
50484;BME280;36409;52.168;20.878;2023-08-07T11:44:20;99137.48;;;23.38;52.11
50484;BME280;36409;52.168;20.878;2023-08-07T11:46:51;99136.45;;;23.70;52.38
50484;BME280;36409;52.168;20.878;2023-08-07T11:49:21;99133.41;;;23.94;51.57
50484;BME280;36409;52.168;20.878;2023-08-07T11:51:50;99131.25;;;24.09;51.87
50484;BME280;36409;52.168;20.878;2023-08-07T11:54:19;99138.18;;;23.90;51.37
50484;BME280;36409;52.168;20.878;2023-08-07T11:56:49;99134.73;;;23.59;50.70
50484;BME280;36409;52.168;20.878;2023-08-07T11:59:18;99136.86;;;23.24;50.67
50484;BME280;36409;52.168;20.878;2023-08-07T12:01:47;99133.19;;;22.94;50.45
50484;BME280;36409;52.168;20.878;2023-08-07T12:04:19;99138.13;;;22.57;50.39
50484;BME280;36409;52.168;20.878;2023-08-07T12:06:54;99143.87;;;22.29;50.49
50484;BME280;36409;52.168;20.878;2023-08-07T12:09:26;99154.47;;;22.08;50.92
50484;BME280;36409;52.168;20.878;2023-08-07T12:11:57;99158.49;;;21.91;50.92
50484;BME280;36409;52.168;20.878;2023-08-07T12:14:30;99155.00;;;21.79;51.09
50484;BME280;36409;52.168;20.878;2023-08-07T12:17:01;99163.84;;;21.68;50.71
50484;BME280;36409;52.168;20.878;2023-08-07T12:19:41;99170.09;;;21.56;50.60
50484;BME280;36409;52.168;20.878;2023-08-07T12:22:11;99173.57;;;21.34;50.52
50484;BME280;36409;52.168;20.878;2023-08-07T12:24:42;99181.53;;;21.11;50.90
50484;BME280;36409;52.168;20.878;2023-08-07T12:27:11;99190.43;;;20.98;51.29
50484;BME280;36409;52.168;20.878;2023-08-07T12:29:40;99194.84;;;20.87;50.95
50484;BME280;36409;52.168;20.878;2023-08-07T12:32:09;99201.23;;;20.84;51.11
50484;BME280;36409;52.168;20.878;2023-08-07T12:34:38;99197.23;;;20.78;50.87
50484;BME280;36409;52.168;20.878;2023-08-07T12:37:28;99207.84;;;20.78;51.35
50484;BME280;36409;52.168;20.878;2023-08-07T12:39:57;99213.53;;;20.85;51.60
50484;BME280;36409;52.168;20.878;2023-08-07T12:42:46;99222.35;;;20.97;51.14
50484;BME280;36409;52.168;20.878;2023-08-07T12:45:17;99211.80;;;21.20;50.94
50484;BME280;36409;52.168;20.878;2023-08-07T12:48:07;99221.25;;;21.58;51.15
50484;BME280;36409;52.168;20.878;2023-08-07T12:50:36;99224.53;;;21.84;51.08
50484;BME280;36409;52.168;20.878;2023-08-07T12:53:05;99219.99;;;22.19;51.40
50484;BME280;36409;52.168;20.878;2023-08-07T12:55:34;99216.09;;;22.46;50.76
50484;BME280;36409;52.168;20.878;2023-08-07T12:58:03;99224.37;;;22.64;49.76
50484;BME280;36409;52.168;20.878;2023-08-07T13:00:32;99223.98;;;22.68;49.73
50484;BME280;36409;52.168;20.878;2023-08-07T13:03:01;99228.47;;;22.68;49.70
50484;BME280;36409;52.168;20.878;2023-08-07T13:05:33;99238.53;;;22.53;48.95